Time;durP1;ratioP1;P1;durP2;ratioP2;P2;SDS_P1;SDS_P2;PMS_P1;PMS_P2;Temp;Humidity;BMP_temperature;BMP_pressure;BME280_temperature;BME280_humidity;BME280_pressure;Samples;Min_cycle;Max_cycle;Signal;HPM_P1;HPM_P2
2021/01/05 00:02:00;;;;;;;63.85;41.23;;;;;;;2.36;82.32;95997.11;1804966;77;21135;-84
2021/01/05 00:04:33;;;;;;;68.30;42.27;;;;;;;2.33;82.23;96001.23;1840064;76;21092;-84
2021/01/05 00:06:54;;;;;;;66.60;40.00;;;;;;;2.32;82.37;95999.63;1831391;76;21250;-84
2021/01/05 00:09:20;;;;;;;54.55;33.08;;;;;;;2.32;82.58;96000.10;1833957;76;22511;-85
2021/01/05 00:12:09;;;;;;;59.00;37.65;;;;;;;2.32;82.74;95997.06;1840715;76;21294;-84
2021/01/05 00:14:37;;;;;;;62.17;35.58;;;;;;;2.22;82.73;95996.75;1837084;76;21135;-84
2021/01/05 00:17:05;;;;;;;58.08;34.38;;;;;;;2.15;82.92;95989.30;1835408;76;21125;-83
2021/01/05 00:19:31;;;;;;;57.17;37.42;;;;;;;2.12;82.89;95990.39;1838171;76;21159;-83
2021/01/05 00:21:57;;;;;;;60.78;37.78;;;;;;;2.18;83.06;95997.98;1839227;76;21120;-83
2021/01/05 00:24:23;;;;;;;65.92;38.75;;;;;;;2.20;83.08;95991.77;1830814;76;21261;-83
2021/01/05 00:26:50;;;;;;;62.30;37.23;;;;;;;2.21;83.20;95992.09;1833044;76;21129;-83
2021/01/05 00:29:16;;;;;;;49.03;31.50;;;;;;;2.23;83.16;95990.67;1824674;76;22260;-83
2021/01/05 00:31:43;;;;;;;66.50;38.95;;;;;;;2.21;83.02;95995.14;1801924;77;21131;-82
2021/01/05 00:34:09;;;;;;;52.10;34.20;;;;;;;2.18;83.03;95992.86;1805832;76;21280;-83
2021/01/05 00:36:36;;;;;;;54.93;34.78;;;;;;;2.17;83.13;95996.37;1838999;76;21130;-83
2021/01/05 00:39:04;;;;;;;58.08;35.40;;;;;;;2.12;83.15;95994.70;1838518;76;21105;-83
2021/01/05 00:41:30;;;;;;;49.05;30.52;;;;;;;2.13;83.26;95996.31;1833948;76;21129;-83
2021/01/05 00:43:56;;;;;;;58.58;34.85;;;;;;;2.12;83.72;95997.27;1846195;76;21423;-82
2021/01/05 00:46:22;;;;;;;44.53;29.72;;;;;;;2.04;83.53;95998.75;1839257;76;21133;-83
2021/01/05 00:48:49;;;;;;;57.03;34.85;;;;;;;1.97;83.47;96004.58;1835067;76;21108;-82
2021/01/05 00:51:15;;;;;;;42.70;29.05;;;;;;;1.94;83.82;96004.36;1826130;77;21145;-83
2021/01/05 00:53:41;;;;;;;48.58;30.70;;;;;;;1.92;84.16;95995.19;1843390;77;21132;-83
2021/01/05 00:56:08;;;;;;;51.28;31.57;;;;;;;1.92;83.85;95997.28;1831384;77;21144;-84
2021/01/05 00:58:34;;;;;;;56.60;33.63;;;;;;;1.95;84.04;95997.03;1816329;77;21129;-84
2021/01/05 01:01:00;;;;;;;58.02;35.17;;;;;;;1.97;84.10;95996.42;1833471;77;21128;-85
2021/01/05 01:03:27;;;;;;;49.35;33.53;;;;;;;2.02;84.16;95992.16;1840413;76;21121;-84
2021/01/05 01:05:53;;;;;;;57.48;35.25;;;;;;;2.10;84.16;95988.41;1848562;76;21298;-84
2021/01/05 01:08:20;;;;;;;56.80;32.88;;;;;;;2.13;83.98;95988.16;1835596;76;21128;-84
2021/01/05 01:10:47;;;;;;;53.00;31.73;;;;;;;2.22;84.06;95987.30;1834328;76;21098;-83
2021/01/05 01:13:13;;;;;;;50.03;32.60;;;;;;;2.32;84.15;95986.81;1839044;76;21128;-84
2021/01/05 01:15:40;;;;;;;54.98;34.03;;;;;;;2.42;84.06;95980.34;1830554;77;21250;-84
2021/01/05 01:18:07;;;;;;;52.48;33.23;;;;;;;2.46;83.88;95979.14;1835466;76;21378;-84
2021/01/05 01:20:33;;;;;;;56.18;33.55;;;;;;;2.51;83.73;95987.68;1830284;77;21332;-84
2021/01/05 01:22:59;;;;;;;53.40;31.73;;;;;;;2.58;83.57;95984.87;1838802;76;21155;-83
2021/01/05 01:25:26;;;;;;;56.83;33.60;;;;;;;2.65;83.53;95992.34;1846128;76;21089;-84
2021/01/05 01:27:52;;;;;;;55.60;32.40;;;;;;;2.75;83.56;95987.15;1832660;76;21615;-84
2021/01/05 01:30:19;;;;;;;57.85;36.53;;;;;;;2.82;83.40;95980.52;1838097;76;21247;-84
2021/01/05 01:32:45;;;;;;;53.40;33.83;;;;;;;2.74;83.08;95988.91;1837548;76;21120;-85
2021/01/05 01:35:12;;;;;;;56.70;34.98;;;;;;;2.70;83.08;95979.89;1832903;76;21330;-84
2021/01/05 01:37:39;;;;;;;51.00;32.00;;;;;;;2.71;83.14;95978.94;1835853;76;21264;-84
2021/01/05 01:40:08;;;;;;;57.05;32.60;;;;;;;2.66;82.80;95978.57;1828632;76;21572;-84
2021/01/05 01:42:34;;;;;;;54.67;33.23;;;;;;;2.65;83.00;95973.91;1832814;76;21125;-84
2021/01/05 01:45:00;;;;;;;52.35;31.02;;;;;;;2.70;83.05;95971.72;1836694;76;21258;-85
2021/01/05 01:47:37;;;;;;;49.67;31.23;;;;;;;2.70;82.99;95968.34;1830256;76;21167;-83
2021/01/05 01:50:12;;;;;;;58.28;35.28;;;;;;;2.68;82.81;95962.55;1820504;77;21114;-84
2021/01/05 01:53:12;;;;;;;54.25;34.18;;;;;;;2.56;82.88;95967.53;1834383;76;21138;-84
2021/01/05 01:56:13;;;;;;;53.13;32.28;;;;;;;2.53;82.97;95963.98;1840667;76;21114;-84
2021/01/05 01:58:54;;;;;;;54.83;33.02;;;;;;;2.48;82.83;95957.20;1836143;76;21120;-84
2021/01/05 02:01:58;;;;;;;59.25;34.88;;;;;;;2.47;83.25;95956.86;1792311;76;21116;-84
2021/01/05 02:04:44;;;;;;;62.90;33.48;;;;;;;2.52;83.37;95955.95;1831473;76;21109;-84
2021/01/05 02:07:55;;;;;;;49.85;31.57;;;;;;;2.49;83.13;95948.55;1844738;76;21142;-84
2021/01/05 02:10:48;;;;;;;47.38;31.45;;;;;;;2.37;83.09;95951.29;1840537;76;21266;-84
2021/01/05 02:13:36;;;;;;;55.55;32.63;;;;;;;2.29;83.11;95946.08;1834629;76;21356;-83
2021/01/05 02:16:27;;;;;;;54.13;33.33;;;;;;;2.32;83.45;95944.98;1842438;76;21256;-84
2021/01/05 02:19:08;;;;;;;54.15;33.02;;;;;;;2.32;83.31;95941.94;1827845;76;21422;-84
2021/01/05 02:22:15;;;;;;;54.15;33.63;;;;;;;2.33;83.32;95938.42;1847870;76;21282;-83
2021/01/05 02:25:07;;;;;;;52.20;32.03;;;;;;;2.30;83.29;95941.28;1773510;79;21184;-83
2021/01/05 02:27:37;;;;;;;42.90;27.50;;;;;;;2.32;83.28;95934.25;1835463;76;21413;-84
2021/01/05 02:30:05;;;;;;;48.58;31.62;;;;;;;2.32;83.03;95926.56;1838577;76;21141;-84
2021/01/05 02:32:59;;;;;;;49.88;31.90;;;;;;;2.36;82.96;95929.16;1836488;76;21143;-83
2021/01/05 02:35:54;;;;;;;52.40;34.13;;;;;;;2.38;82.83;95928.55;1815013;76;21108;-83
2021/01/05 02:39:14;;;;;;;47.62;31.15;;;;;;;2.38;82.65;95936.23;1829687;76;21430;-84
2021/01/05 02:42:04;;;;;;;57.78;31.97;;;;;;;2.34;82.46;95935.39;1835524;76;21138;-83
2021/01/05 02:44:57;;;;;;;45.30;29.52;;;;;;;2.27;82.36;95930.00;1770264;76;21160;-83
2021/01/05 02:47:52;;;;;;;46.18;31.07;;;;;;;2.27;82.31;95926.16;1838868;76;21176;-83
2021/01/05 02:50:44;;;;;;;47.98;30.15;;;;;;;2.29;82.26;95917.88;1710917;82;21185;-82
2021/01/05 02:53:40;;;;;;;45.90;29.87;;;;;;;2.26;82.11;95921.17;1675224;84;21317;-83
2021/01/05 02:56:49;;;;;;;47.05;30.20;;;;;;;2.25;82.23;95923.41;1711101;82;21416;-82
2021/01/05 02:59:49;;;;;;;47.60;32.25;;;;;;;2.22;82.24;95921.13;1652799;84;21287;-82
2021/01/05 03:03:02;;;;;;;45.92;30.45;;;;;;;2.17;82.24;95915.63;1702920;82;21125;-83
2021/01/05 03:05:28;;;;;;;44.23;29.87;;;;;;;2.17;82.12;95908.75;1712062;83;21148;-82
2021/01/05 03:07:54;;;;;;;42.70;30.90;;;;;;;2.17;82.13;95907.94;1719708;82;21126;-82
2021/01/05 03:10:44;;;;;;;42.35;30.45;;;;;;;2.15;81.99;95910.64;1654731;83;21169;-81
2021/01/05 03:13:36;;;;;;;41.18;27.52;;;;;;;2.11;81.96;95906.73;1663680;84;21181;-82
2021/01/05 03:16:12;;;;;;;50.78;28.02;;;;;;;2.04;81.93;95905.69;1666415;84;21198;-82
2021/01/05 03:18:47;;;;;;;40.95;27.90;;;;;;;2.00;81.99;95903.08;1638724;85;21336;-82
2021/01/05 03:21:21;;;;;;;40.75;27.10;;;;;;;1.96;81.98;95906.41;1660181;85;21420;-82
2021/01/05 03:23:49;;;;;;;37.83;26.42;;;;;;;1.95;81.94;95904.79;1680474;84;21126;-82
2021/01/05 03:26:16;;;;;;;35.13;25.45;;;;;;;1.96;81.90;95900.47;1708185;82;21181;-82
2021/01/05 03:28:42;;;;;;;38.35;27.45;;;;;;;1.96;81.84;95888.94;1685210;83;21114;-82
2021/01/05 03:31:36;;;;;;;;;;;;;;;;;;;;;
2021/01/05 03:34:42;;;;;;;42.78;28.92;;;;;;;2.05;81.92;95886.80;1855193;75;24067;-83
2021/01/05 03:37:07;;;;;;;39.38;26.97;;;;;;;2.00;81.85;95892.36;1830838;77;21387;-83
2021/01/05 03:39:34;;;;;;;37.13;26.60;;;;;;;2.02;81.94;95885.80;1814701;77;21362;-84
2021/01/05 03:42:00;;;;;;;37.78;25.45;;;;;;;2.05;81.94;95882.48;1827014;77;21158;-83
2021/01/05 03:44:26;;;;;;;36.17;24.85;;;;;;;2.08;81.83;95885.23;1827758;77;21234;-84
2021/01/05 03:46:52;;;;;;;35.78;26.65;;;;;;;2.07;81.76;95883.14;1820059;77;21124;-84
2021/01/05 03:49:18;;;;;;;38.28;27.22;;;;;;;2.07;81.82;95879.77;1797790;77;21915;-83
2021/01/05 03:51:44;;;;;;;38.35;27.20;;;;;;;2.05;81.79;95874.80;1831681;77;21119;-83
2021/01/05 03:54:10;;;;;;;38.02;28.15;;;;;;;2.04;81.75;95875.74;1820041;77;21101;-83
2021/01/05 03:56:37;;;;;;;36.70;25.82;;;;;;;2.02;81.83;95875.55;1825628;77;21455;-83
2021/01/05 03:59:02;;;;;;;40.25;28.87;;;;;;;2.03;81.86;95874.61;1820756;77;21220;-83
2021/01/05 04:01:29;;;;;;;38.20;27.70;;;;;;;2.03;81.70;95871.57;1826461;77;21207;-83
2021/01/05 04:03:55;;;;;;;43.55;29.80;;;;;;;2.05;81.69;95876.55;1818237;77;21108;-84
2021/01/05 04:06:27;;;;;;;37.93;27.98;;;;;;;2.05;81.57;95868.86;1834388;77;21117;-84
2021/01/05 04:08:54;;;;;;;39.88;27.98;;;;;;;2.06;81.78;95860.22;1813484;77;21069;-83
2021/01/05 04:11:21;;;;;;;38.53;26.97;;;;;;;2.09;81.76;95861.22;1828340;77;21109;-83
2021/01/05 04:13:47;;;;;;;36.80;25.45;;;;;;;2.07;81.60;95857.98;1829559;77;21094;-83
2021/01/05 04:16:13;;;;;;;35.55;25.57;;;;;;;2.07;81.66;95861.84;1820883;77;21252;-84
2021/01/05 04:18:39;;;;;;;31.17;23.73;;;;;;;2.10;81.67;95855.14;1822396;77;21124;-83
2021/01/05 04:21:05;;;;;;;32.90;25.00;;;;;;;2.13;81.47;95848.95;1820256;77;21195;-83
2021/01/05 04:23:31;;;;;;;28.47;21.20;;;;;;;2.13;81.39;95847.66;1823671;77;21107;-83
2021/01/05 04:25:57;;;;;;;29.57;21.70;;;;;;;2.13;81.45;95851.03;1817914;77;21235;-83
2021/01/05 04:28:23;;;;;;;29.60;21.93;;;;;;;2.14;81.57;95845.44;1820321;77;21202;-83
2021/01/05 04:30:49;;;;;;;29.85;23.98;;;;;;;2.13;81.54;95845.10;1828625;77;21436;-83
2021/01/05 04:33:16;;;;;;;30.65;23.90;;;;;;;2.09;81.53;95847.92;1823530;77;21465;-83
2021/01/05 04:35:42;;;;;;;32.13;23.55;;;;;;;2.09;81.41;95847.92;1827144;77;21318;-83
2021/01/05 04:38:08;;;;;;;31.17;22.62;;;;;;;2.09;81.21;95849.20;1827283;77;21557;-83
2021/01/05 04:40:42;;;;;;;28.70;22.80;;;;;;;2.10;81.27;95841.05;1829052;77;21090;-84
2021/01/05 04:43:26;;;;;;;26.30;19.07;;;;;;;2.08;81.15;95842.95;1834351;77;21090;-83
2021/01/05 04:46:18;;;;;;;22.87;16.40;;;;;;;2.04;81.26;95847.55;1824327;76;21346;-84
2021/01/05 04:49:07;;;;;;;29.20;21.90;;;;;;;1.99;81.29;95839.50;1830415;77;21076;-83
2021/01/05 04:51:57;;;;;;;25.05;17.85;;;;;;;1.94;81.43;95841.66;1816047;77;21294;-83
2021/01/05 04:54:49;;;;;;;19.85;15.63;;;;;;;1.95;81.45;95842.46;1831458;77;21232;-83
2021/01/05 04:57:25;;;;;;;16.30;13.78;;;;;;;1.96;81.38;95844.91;1825986;77;21103;-83
2021/01/05 05:00:17;;;;;;;17.35;13.40;;;;;;;1.97;81.43;95845.72;1803768;77;21113;-83
2021/01/05 05:02:55;;;;;;;16.37;12.85;;;;;;;1.95;81.42;95842.46;1828558;77;21104;-83
2021/01/05 05:05:33;;;;;;;17.20;12.73;;;;;;;1.87;81.29;95840.62;1829088;77;21224;-83
2021/01/05 05:08:17;;;;;;;17.05;13.32;;;;;;;1.83;81.49;95842.33;1796345;77;21099;-82
2021/01/05 05:10:59;;;;;;;19.50;14.68;;;;;;;1.78;81.50;95839.70;1828937;77;22129;-82
2021/01/05 05:14:00;;;;;;;17.17;13.72;;;;;;;1.78;81.43;95837.13;1821062;77;21245;-81
2021/01/05 05:16:51;;;;;;;17.02;13.48;;;;;;;1.75;81.35;95833.58;1824263;77;22008;-82
2021/01/05 05:19:49;;;;;;;20.15;14.38;;;;;;;1.77;81.53;95834.72;1829461;77;21055;-81
2021/01/05 05:22:30;;;;;;;20.52;15.20;;;;;;;1.76;81.53;95831.82;1830041;77;21141;-81
2021/01/05 05:25:17;;;;;;;23.67;16.52;;;;;;;1.76;81.56;95839.03;1825249;77;21106;-82
2021/01/05 05:28:12;;;;;;;22.10;16.40;;;;;;;1.79;81.62;95834.13;1807242;78;22898;-81
2021/01/05 05:30:40;;;;;;;20.92;17.50;;;;;;;1.77;81.67;95844.48;1739969;79;21238;-83
2021/01/05 05:33:26;;;;;;;24.45;19.95;;;;;;;1.81;81.58;95842.47;1762625;79;21113;-83
2021/01/05 05:36:25;;;;;;;27.05;22.65;;;;;;;1.82;81.53;95840.24;1737441;81;21149;-83
2021/01/05 05:39:19;;;;;;;21.02;17.85;;;;;;;1.74;81.37;95835.81;1745251;79;21125;-82
2021/01/05 05:42:25;;;;;;;25.12;19.37;;;;;;;1.64;81.55;95843.21;1767845;81;21418;-82
2021/01/05 05:45:11;;;;;;;23.00;18.45;;;;;;;1.62;81.60;95839.48;1757962;81;21134;-82
2021/01/05 05:47:52;;;;;;;24.60;21.57;;;;;;;1.63;81.73;95836.48;1762780;80;21125;-81
2021/01/05 05:50:22;;;;;;;26.20;22.00;;;;;;;1.69;81.71;95833.34;1767530;79;21135;-81
2021/01/05 05:53:02;;;;;;;18.48;14.90;;;;;;;1.73;81.60;95835.48;1762646;81;21125;-81
2021/01/05 05:55:58;;;;;;;16.48;14.75;;;;;;;1.71;81.60;95825.05;1758842;81;21094;-82
2021/01/05 05:58:28;;;;;;;16.27;14.05;;;;;;;1.66;81.68;95828.03;1731894;81;21129;-82
2021/01/05 06:00:57;;;;;;;15.90;13.80;;;;;;;1.67;81.76;95832.20;1754827;81;21091;-82
2021/01/05 06:03:24;;;;;;;18.05;14.90;;;;;;;1.65;81.78;95830.27;1755972;81;21115;-81
2021/01/05 06:05:51;;;;;;;23.45;17.00;;;;;;;1.68;81.65;95826.14;1755232;81;21236;-81
2021/01/05 06:08:18;;;;;;;19.05;15.48;;;;;;;1.66;81.60;95833.16;1752392;81;21149;-81
2021/01/05 06:10:44;;;;;;;18.32;14.43;;;;;;;1.68;81.62;95831.26;1766252;81;21153;-81
2021/01/05 06:13:10;;;;;;;18.75;16.23;;;;;;;1.66;81.55;95826.75;1754165;81;21970;-81
2021/01/05 06:15:36;;;;;;;17.17;14.35;;;;;;;1.63;81.56;95823.20;1756726;81;21244;-82
2021/01/05 06:18:04;;;;;;;16.37;13.05;;;;;;;1.58;81.76;95824.06;1753807;81;21129;-81
2021/01/05 06:20:30;;;;;;;14.55;12.75;;;;;;;1.57;81.65;95825.49;1758819;81;21136;-81
2021/01/05 06:22:56;;;;;;;14.55;11.60;;;;;;;1.49;81.57;95827.48;1757718;81;21164;-81
2021/01/05 06:25:22;;;;;;;13.25;10.00;;;;;;;1.47;81.64;95825.54;1761999;81;21359;-81
2021/01/05 06:27:49;;;;;;;11.97;9.73;;;;;;;1.46;81.61;95822.17;1761147;81;21151;-81
2021/01/05 06:30:18;;;;;;;14.10;10.03;;;;;;;1.48;81.73;95823.31;1753515;81;21114;-84
2021/01/05 06:33:01;;;;;;;12.30;10.98;;;;;;;1.46;81.81;95822.17;1753925;81;21577;-83
2021/01/05 06:35:32;;;;;;;16.67;12.30;;;;;;;1.49;82.04;95821.89;1753057;79;21435;-82
2021/01/05 06:37:58;;;;;;;15.63;11.03;;;;;;;1.52;82.02;95817.43;1755323;81;21106;-83
2021/01/05 06:40:26;;;;;;;15.75;12.28;;;;;;;1.49;81.99;95816.77;1746495;81;21089;-82
2021/01/05 06:42:53;;;;;;;15.50;11.48;;;;;;;1.53;81.93;95817.77;1719516;81;21722;-82
2021/01/05 06:45:29;;;;;;;14.33;11.57;;;;;;;1.53;81.84;95818.57;1743384;81;21111;-82
2021/01/05 06:47:55;;;;;;;15.43;13.58;;;;;;;1.52;81.87;95816.95;1743041;81;21342;-83
2021/01/05 06:50:23;;;;;;;13.90;11.40;;;;;;;1.54;82.00;95816.81;1723383;81;21124;-82
2021/01/05 06:52:49;;;;;;;10.82;8.80;;;;;;;1.53;82.01;95817.29;1747140;81;21243;-83
2021/01/05 06:55:15;;;;;;;11.68;10.20;;;;;;;1.52;82.04;95814.39;1746705;81;21137;-83
2021/01/05 06:57:41;;;;;;;13.53;10.13;;;;;;;1.46;81.95;95817.50;1751597;81;21392;-82
2021/01/05 07:00:14;;;;;;;14.38;10.58;;;;;;;1.42;81.87;95813.61;1750221;81;21133;-83
2021/01/05 07:02:40;;;;;;;14.25;10.18;;;;;;;1.39;81.97;95817.25;1754341;81;21121;-82
2021/01/05 07:05:08;;;;;;;22.82;20.52;;;;;;;1.39;81.88;95810.86;1751928;81;21120;-82
2021/01/05 07:07:34;;;;;;;15.28;13.38;;;;;;;1.37;82.09;95815.78;1743061;81;21139;-82
2021/01/05 07:10:00;;;;;;;14.78;12.68;;;;;;;1.34;82.12;95812.23;1757840;81;21173;-83
2021/01/05 07:12:26;;;;;;;15.38;13.35;;;;;;;1.36;82.39;95809.86;1758998;81;21113;-82
2021/01/05 07:14:52;;;;;;;16.00;11.93;;;;;;;1.37;82.35;95808.11;1751620;81;21133;-82
2021/01/05 07:17:19;;;;;;;15.48;12.35;;;;;;;1.40;82.41;95806.55;1755604;81;21328;-83
2021/01/05 07:19:45;;;;;;;13.20;10.60;;;;;;;1.43;82.35;95800.66;1736696;81;21121;-82
2021/01/05 07:22:12;;;;;;;12.63;11.33;;;;;;;1.46;82.23;95804.25;1758315;81;21090;-83
2021/01/05 07:24:38;;;;;;;16.42;12.88;;;;;;;1.45;82.16;95794.13;1752805;81;21232;-82
2021/01/05 07:27:05;;;;;;;15.03;12.68;;;;;;;1.48;82.36;95804.11;1760533;81;21466;-82
2021/01/05 07:29:31;;;;;;;16.73;13.72;;;;;;;1.51;82.35;95797.42;1752735;81;21352;-83
2021/01/05 07:31:57;;;;;;;15.70;14.05;;;;;;;1.53;82.39;95800.65;1759592;81;21123;-83
2021/01/05 07:34:23;;;;;;;15.23;11.80;;;;;;;1.54;82.27;95795.86;1756542;81;21121;-83
2021/01/05 07:36:56;;;;;;;15.45;11.73;;;;;;;1.53;82.12;95798.09;1761916;80;21227;-83
2021/01/05 07:39:26;;;;;;;19.40;13.50;;;;;;;1.47;82.18;95802.02;1738617;81;21131;-83
2021/01/05 07:42:11;;;;;;;14.93;12.23;;;;;;;1.50;82.09;95798.38;1739284;81;21376;-82
2021/01/05 07:44:38;;;;;;;14.70;12.88;;;;;;;1.47;82.13;95795.63;1738119;81;21156;-82
2021/01/05 07:47:05;;;;;;;15.83;13.15;;;;;;;1.45;82.27;95797.96;1739756;81;21132;-82
2021/01/05 07:49:31;;;;;;;18.30;14.15;;;;;;;1.47;82.45;95796.09;1751155;81;21259;-83
2021/01/05 07:51:57;;;;;;;16.80;12.98;;;;;;;1.48;82.36;95797.70;1736765;81;21117;-82
2021/01/05 07:54:23;;;;;;;15.45;11.97;;;;;;;1.49;82.26;95799.32;1737946;81;21235;-83
2021/01/05 07:56:49;;;;;;;18.10;14.30;;;;;;;1.51;82.30;95797.42;1748179;81;21148;-82
2021/01/05 07:59:18;;;;;;;20.20;16.05;;;;;;;1.57;82.40;95798.13;1724937;82;21382;-80
2021/01/05 08:01:43;;;;;;;21.65;16.27;;;;;;;1.63;82.36;95786.54;1729535;81;21532;-82
2021/01/05 08:04:09;;;;;;;20.02;16.05;;;;;;;1.66;82.30;95787.53;1723332;82;21137;-82
2021/01/05 08:06:42;;;;;;;16.97;14.35;;;;;;;1.67;82.28;95789.95;1746417;81;21171;-82
2021/01/05 08:09:08;;;;;;;18.77;13.62;;;;;;;1.64;82.12;95789.43;1739801;81;21140;-83
2021/01/05 08:11:37;;;;;;;38.42;24.80;;;;;;;1.63;82.09;95782.70;1726273;82;21241;-83
2021/01/05 08:14:03;;;;;;;18.27;15.05;;;;;;;1.67;82.10;95789.95;1718959;82;22142;-83
2021/01/05 08:16:30;;;;;;;24.72;20.52;;;;;;;1.66;82.01;95792.18;1725315;82;21141;-82
2021/01/05 08:18:56;;;;;;;35.65;27.22;;;;;;;1.68;82.13;95777.95;1748668;81;21145;-81
2021/01/05 08:21:24;;;;;;;23.38;19.25;;;;;;;1.63;82.08;95782.22;1745399;81;22110;-83
2021/01/05 08:23:50;;;;;;;20.88;16.82;;;;;;;1.62;82.09;95775.46;1758012;81;21126;-82
2021/01/05 08:26:16;;;;;;;18.77;13.80;;;;;;;1.55;82.09;95773.14;1736830;81;21125;-82
2021/01/05 08:28:42;;;;;;;21.35;17.05;;;;;;;1.55;82.15;95775.70;1721900;82;21148;-82
2021/01/05 08:31:08;;;;;;;26.73;20.80;;;;;;;1.61;82.22;95778.16;1733195;81;21132;-85
2021/01/05 08:33:34;;;;;;;24.23;18.75;;;;;;;1.65;82.05;95783.36;1730367;82;21748;-82
2021/01/05 08:36:00;;;;;;;26.23;19.48;;;;;;;1.66;82.23;95776.81;1727044;82;21258;-80
2021/01/05 08:38:26;;;;;;;23.12;18.12;;;;;;;1.66;82.10;95781.94;1742070;81;21135;-82
2021/01/05 08:40:52;;;;;;;24.55;20.68;;;;;;;1.66;82.22;95783.22;1742665;81;21159;-82
2021/01/05 08:43:18;;;;;;;21.95;17.05;;;;;;;1.70;82.28;95774.30;1746082;81;21151;-82
2021/01/05 08:45:45;;;;;;;29.52;23.85;;;;;;;1.72;82.16;95774.95;1741571;81;21337;-81
2021/01/05 08:48:11;;;;;;;18.70;14.63;;;;;;;1.73;81.96;95775.28;1728316;81;21120;-82
2021/01/05 08:50:37;;;;;;;19.57;13.98;;;;;;;1.71;81.90;95767.41;1719940;82;21129;-82
2021/01/05 08:53:06;;;;;;;18.25;14.40;;;;;;;1.74;82.00;95770.97;1730153;81;21146;-82
2021/01/05 08:55:38;;;;;;;20.57;15.68;;;;;;;1.76;82.05;95771.16;1735114;81;21133;-81
2021/01/05 08:58:05;;;;;;;19.90;16.67;;;;;;;1.78;82.00;95769.73;1730740;82;21164;-82
2021/01/05 09:00:31;;;;;;;19.50;14.20;;;;;;;1.79;82.11;95769.62;1720343;82;21261;-83
2021/01/05 09:02:57;;;;;;;19.70;15.25;;;;;;;1.79;81.95;95767.05;1734660;82;21125;-82
2021/01/05 09:05:23;;;;;;;18.87;13.80;;;;;;;1.81;81.89;95763.06;1730932;83;21117;-82
2021/01/05 09:07:50;;;;;;;19.20;14.68;;;;;;;1.83;81.72;95764.20;1732452;81;21144;-82
2021/01/05 09:10:22;;;;;;;23.92;19.05;;;;;;;1.80;81.67;95764.02;1762960;81;21248;-82
2021/01/05 09:12:52;;;;;;;25.15;17.87;;;;;;;1.84;81.90;95766.62;1751406;82;21355;-82
2021/01/05 09:15:20;;;;;;;26.40;17.67;;;;;;;1.90;81.95;95760.91;1738892;81;21170;-82
2021/01/05 09:17:48;;;;;;;23.55;16.80;;;;;;;1.92;81.72;95757.73;1746496;82;21109;-82
2021/01/05 09:20:21;;;;;;;20.95;13.60;;;;;;;1.91;81.67;95763.00;1739250;82;21150;-83
2021/01/05 09:22:48;;;;;;;20.50;16.30;;;;;;;1.88;81.45;95761.53;1745080;82;21169;-82
2021/01/05 09:25:14;;;;;;;20.90;15.38;;;;;;;1.91;81.51;95765.08;1719188;82;21129;-83
2021/01/05 09:27:40;;;;;;;24.20;17.05;;;;;;;2.01;81.67;95763.76;1747759;82;21220;-81
2021/01/05 09:30:14;;;;;;;23.70;16.80;;;;;;;1.95;81.52;95750.22;1737807;81;21435;-81
2021/01/05 09:32:40;;;;;;;21.70;15.23;;;;;;;2.05;81.45;95762.03;1752898;82;21387;-84
2021/01/05 09:35:09;;;;;;;24.63;17.98;;;;;;;2.05;81.37;95762.52;1738887;81;21117;-84
2021/01/05 09:37:41;;;;;;;20.50;15.58;;;;;;;2.02;81.44;95757.20;1755679;81;21312;-84
2021/01/05 09:40:09;;;;;;;23.87;17.57;;;;;;;2.06;81.46;95752.12;1729920;83;21137;-85
2021/01/05 09:42:35;;;;;;;39.58;32.48;;;;;;;2.15;81.33;95752.22;1722052;83;21161;-86
2021/01/05 09:45:02;;;;;;;27.13;22.52;;;;;;;2.16;81.23;95752.55;1690876;83;21261;-84
2021/01/05 09:47:28;;;;;;;23.92;20.15;;;;;;;2.17;81.15;95743.42;1728068;83;21093;-85
2021/01/05 09:49:54;;;;;;;26.93;18.98;;;;;;;2.17;81.13;95746.47;1732860;83;21078;-85
2021/01/05 09:52:23;;;;;;;45.28;32.80;;;;;;;2.13;81.20;95740.83;1726466;83;21282;-85
2021/01/05 09:54:49;;;;;;;23.47;18.85;;;;;;;2.15;81.22;95735.08;1718948;83;21156;-84
2021/01/05 09:57:17;;;;;;;23.15;17.12;;;;;;;2.13;81.09;95733.14;1730561;83;21348;-85
2021/01/05 09:59:45;;;;;;;23.25;15.90;;;;;;;2.15;81.06;95738.92;1718095;83;21119;-84
2021/01/05 10:02:11;;;;;;;23.42;16.85;;;;;;;2.15;80.95;95729.15;1721502;83;21103;-85
2021/01/05 10:04:38;;;;;;;25.77;18.50;;;;;;;2.17;81.00;95728.52;1720859;83;21121;-84
2021/01/05 10:07:05;;;;;;;26.77;18.87;;;;;;;2.14;80.89;95728.82;1726477;83;21376;-85
2021/01/05 10:09:31;;;;;;;25.05;17.82;;;;;;;2.14;81.10;95729.62;1741804;82;21239;-84
2021/01/05 10:11:57;;;;;;;24.82;17.50;;;;;;;2.13;81.17;95736.98;1715399;81;21106;-85
2021/01/05 10:14:23;;;;;;;23.05;16.17;;;;;;;2.13;81.01;95739.55;1729957;82;21259;-84
2021/01/05 10:16:55;;;;;;;23.75;16.32;;;;;;;2.13;80.89;95736.98;1723627;81;21114;-85
2021/01/05 10:19:21;;;;;;;23.50;17.73;;;;;;;2.16;80.87;95735.88;1703419;83;21149;-84
2021/01/05 10:21:47;;;;;;;24.87;18.70;;;;;;;2.18;80.95;95725.01;1719990;82;21300;-84
2021/01/05 10:24:14;;;;;;;28.00;17.48;;;;;;;2.17;80.84;95730.61;1719595;83;21133;-84
2021/01/05 10:26:41;;;;;;;23.67;16.20;;;;;;;2.20;81.08;95731.59;1750537;82;21127;-84
2021/01/05 10:29:08;;;;;;;20.75;14.45;;;;;;;2.21;80.92;95729.84;1722137;83;21126;-81
2021/01/05 10:31:39;;;;;;;22.98;15.55;;;;;;;2.19;80.70;95726.14;1680730;83;21114;-81
2021/01/05 10:34:05;;;;;;;25.00;17.95;;;;;;;2.20;80.84;95718.78;1729453;83;21308;-81
2021/01/05 10:36:31;;;;;;;32.53;25.12;;;;;;;2.28;80.80;95717.59;1748099;82;21232;-81
2021/01/05 10:38:57;;;;;;;25.68;18.73;;;;;;;2.30;80.82;95722.09;1701860;83;21151;-81
2021/01/05 10:41:38;;;;;;;26.15;18.17;;;;;;;2.30;80.62;95717.44;1721837;82;21143;-80
2021/01/05 10:44:05;;;;;;;22.22;15.95;;;;;;;2.26;80.54;95716.09;1710492;82;21343;-79
2021/01/05 10:46:32;;;;;;;19.80;15.05;;;;;;;2.25;80.70;95713.20;1697384;83;21299;-81
2021/01/05 10:48:58;;;;;;;21.90;15.00;;;;;;;2.28;80.88;95705.25;1743322;81;21119;-81
2021/01/05 10:51:24;;;;;;;30.60;23.20;;;;;;;2.31;80.74;95712.16;1725218;82;21153;-80
2021/01/05 10:53:50;;;;;;;19.62;14.68;;;;;;;2.39;80.82;95710.13;1743779;82;21448;-81
2021/01/05 10:56:17;;;;;;;19.85;16.35;;;;;;;2.44;80.53;95713.08;1719524;82;21178;-81
2021/01/05 10:58:43;;;;;;;19.70;15.98;;;;;;;2.45;80.46;95717.25;1735180;82;21141;-81
2021/01/05 11:01:09;;;;;;;24.95;17.92;;;;;;;2.44;80.59;95714.36;1733121;82;21124;-81
2021/01/05 11:03:36;;;;;;;21.37;15.93;;;;;;;2.45;80.53;95709.56;1732481;81;21103;-80
2021/01/05 11:06:04;;;;;;;21.57;16.42;;;;;;;2.45;80.46;95709.56;1743956;82;21125;-82
2021/01/05 11:08:30;;;;;;;19.77;14.90;;;;;;;2.44;80.55;95705.83;1729197;82;21160;-80
2021/01/05 11:10:56;;;;;;;19.10;14.03;;;;;;;2.53;80.55;95703.67;1741209;82;21549;-81
2021/01/05 11:13:23;;;;;;;18.25;13.60;;;;;;;2.59;80.14;95703.07;1734027;82;21231;-81
2021/01/05 11:15:49;;;;;;;18.82;15.53;;;;;;;2.64;80.11;95703.45;1685050;83;21417;-80
2021/01/05 11:18:15;;;;;;;19.75;15.05;;;;;;;2.59;79.76;95697.94;1713885;83;21308;-81
2021/01/05 11:20:41;;;;;;;18.90;13.98;;;;;;;2.56;79.82;95705.46;1731388;81;21288;-80
2021/01/05 11:23:09;;;;;;;18.45;14.13;;;;;;;2.56;79.97;95700.81;1738857;81;21133;-80
2021/01/05 11:25:35;;;;;;;19.65;13.78;;;;;;;2.56;80.07;95705.94;1744134;81;21275;-81
2021/01/05 11:28:04;;;;;;;19.00;13.15;;;;;;;2.59;80.00;95705.63;1725955;82;21111;-81
2021/01/05 11:30:30;;;;;;;21.02;14.95;;;;;;;2.61;79.90;95702.47;1737040;81;21230;-80
2021/01/05 11:32:56;;;;;;;24.32;16.40;;;;;;;2.60;79.81;95704.67;1731450;82;21222;-82
2021/01/05 11:35:22;;;;;;;23.25;16.82;;;;;;;2.59;80.04;95688.96;1742012;81;21239;-81
2021/01/05 11:37:49;;;;;;;22.65;16.95;;;;;;;2.66;79.92;95699.77;1748299;81;21106;-81
2021/01/05 11:40:16;;;;;;;22.10;15.32;;;;;;;2.67;79.97;95698.82;1794342;78;21101;-80
2021/01/05 11:42:42;;;;;;;20.40;14.60;;;;;;;2.60;79.74;95693.97;1793380;79;21117;-83
2021/01/05 11:45:10;;;;;;;17.20;13.10;;;;;;;2.53;79.76;95698.55;1792385;78;21152;-82
2021/01/05 11:47:37;;;;;;;19.05;13.72;;;;;;;2.40;79.47;95698.44;1779457;78;21128;-81
2021/01/05 11:50:07;;;;;;;18.92;12.40;;;;;;;2.32;79.65;95697.58;1799983;78;21129;-81